createdAt,value
2018-12-06T06:28:29.588Z,1.30
2018-12-06T06:31:01.730Z,1.30
2018-12-06T06:33:37.892Z,1.30
2018-12-06T06:39:01.211Z,1.40
2018-12-06T06:41:33.408Z,1.40
2018-12-06T06:44:05.108Z,1.40
2018-12-06T06:46:34.604Z,1.40
2018-12-06T06:49:13.511Z,1.50
2018-12-06T06:51:36.332Z,1.50
2018-12-06T06:54:06.664Z,1.50
2018-12-06T06:59:38.449Z,1.40
2018-12-06T07:02:10.923Z,1.40
2018-12-06T07:04:47.349Z,1.40
2018-12-06T07:07:19.324Z,1.40
2018-12-06T07:09:48.667Z,1.50
2018-12-06T07:12:18.983Z,1.40
2018-12-06T07:24:30.634Z,1.50
2018-12-06T07:27:01.507Z,1.50
2018-12-06T07:29:36.946Z,1.50
2018-12-06T07:32:17.522Z,1.50
2018-12-06T07:34:56.227Z,1.50
2018-12-06T07:37:27.844Z,1.50
2018-12-06T07:43:23.786Z,1.50
2018-12-06T07:48:41.274Z,1.60
2018-12-06T07:51:16.191Z,1.60
2018-12-06T07:53:49.196Z,1.60
2018-12-06T07:56:36.106Z,1.70
2018-12-06T07:59:10.842Z,1.70
2018-12-06T08:01:49.747Z,1.80
2018-12-06T08:19:31.165Z,2.00
2018-12-06T08:56:15.314Z,2.20
2018-12-06T08:58:47.067Z,2.20
2018-12-06T09:17:52.826Z,2.60
2018-12-06T09:20:22.441Z,2.50
2018-12-06T09:22:59.410Z,2.40
2018-12-06T09:25:47.924Z,2.30
2018-12-06T09:28:28.445Z,2.20
2018-12-06T09:31:05.633Z,2.30
2018-12-06T09:43:55.073Z,2.50
2018-12-06T09:49:30.043Z,2.50
2018-12-06T09:52:06.449Z,2.50
2018-12-06T09:54:38.297Z,2.50
2018-12-06T09:57:10.029Z,2.60
2018-12-06T10:05:35.536Z,2.70
2018-12-06T10:11:15.302Z,2.90
2018-12-06T10:13:47.608Z,2.90
2018-12-06T10:16:20.214Z,2.90
2018-12-06T10:18:55.100Z,3.00
2018-12-06T10:21:27.922Z,3.00
2018-12-06T10:24:03.123Z,3.00
2018-12-06T10:26:34.910Z,3.00
2018-12-06T10:29:16.727Z,3.00
2018-12-06T10:31:48.404Z,3.00
2018-12-06T10:34:20.625Z,3.00
2018-12-06T10:36:55.368Z,3.10
2018-12-06T10:39:29.471Z,3.10
2018-12-06T10:42:02.400Z,3.00
2018-12-06T10:44:39.865Z,3.10
2018-12-06T10:47:12.365Z,3.10
2018-12-06T10:49:52.648Z,3.00
2018-12-06T10:52:23.967Z,3.10
2018-12-06T10:54:55.519Z,3.10
2018-12-06T10:57:29.190Z,3.00
2018-12-06T11:00:01.278Z,3.00
2018-12-06T11:02:51.668Z,3.00
2018-12-06T11:05:21.938Z,2.90
2018-12-06T11:07:55.433Z,2.80
2018-12-06T11:10:31.338Z,2.90
2018-12-06T11:13:02.802Z,3.00
2018-12-06T11:15:33.802Z,3.10
2018-12-06T11:18:05.599Z,3.00
2018-12-06T11:20:37.925Z,3.10
2018-12-06T11:23:09.044Z,3.10
2018-12-06T11:25:41.667Z,3.10
2018-12-06T11:28:14.016Z,3.10
2018-12-06T11:30:51.812Z,3.10
2018-12-06T11:33:22.781Z,3.20
2018-12-06T11:35:55.723Z,3.20
2018-12-06T11:38:27.725Z,3.20
2018-12-06T11:40:58.363Z,3.10
2018-12-06T11:43:30.578Z,3.10
2018-12-06T11:46:04.801Z,3.10
2018-12-06T11:48:36.094Z,3.10
2018-12-06T11:51:08.912Z,3.10
2018-12-06T11:53:41.404Z,3.10
2018-12-06T11:56:12.826Z,3.20
2018-12-06T11:58:46.734Z,3.20
2018-12-06T12:01:16.942Z,3.30
2018-12-06T12:03:47.430Z,3.30
2018-12-06T12:06:17.712Z,3.30
2018-12-06T12:08:49.585Z,3.30
2018-12-06T12:11:26.134Z,3.30
2018-12-06T12:13:56.797Z,3.40
2018-12-06T12:16:28.001Z,3.40
2018-12-06T12:18:59.298Z,3.40
2018-12-06T12:21:30.536Z,3.30
2018-12-06T12:24:01.525Z,3.20
2018-12-06T12:26:31.917Z,3.20
2018-12-06T12:29:02.608Z,3.10
2018-12-06T12:31:44.908Z,3.10
2018-12-06T12:34:19.692Z,3.10
2018-12-06T12:36:51.690Z,3.20
2018-12-06T12:39:26.472Z,3.20
2018-12-06T12:44:20.179Z,3.20
2018-12-06T12:51:05.562Z,3.20
2018-12-06T12:53:36.008Z,3.20
2018-12-06T12:56:07.660Z,3.00
2018-12-06T12:58:39.156Z,2.90
2018-12-06T13:01:11.002Z,2.80
2018-12-06T13:03:43.263Z,2.60
2018-12-06T13:06:18.716Z,2.40
2018-12-06T13:08:59.755Z,2.30
2018-12-06T13:14:39.456Z,1.90
2018-12-06T13:17:13.334Z,1.80
2018-12-06T13:22:55.111Z,1.50
2018-12-06T13:28:29.335Z,1.20
2018-12-06T13:31:00.990Z,1.20
2018-12-06T13:33:34.556Z,1.10
2018-12-06T13:36:22.689Z,1.10
2018-12-06T13:38:57.191Z,1.00
2018-12-06T13:51:45.479Z,0.60
2018-12-06T13:54:33.697Z,0.50
2018-12-06T14:16:07.098Z,0.40
2018-12-06T14:24:44.865Z,0.30
2018-12-06T14:27:26.401Z,0.40
2018-12-06T14:30:00.877Z,0.40
2018-12-06T14:32:32.949Z,0.50
2018-12-06T14:35:04.433Z,0.60
2018-12-06T14:39:14.423Z,0.60
2018-12-06T14:41:51.335Z,0.70
2018-12-06T14:44:23.266Z,0.80
2018-12-06T14:46:52.413Z,0.90
2018-12-06T14:49:24.808Z,0.90
2018-12-06T14:51:53.744Z,0.90
2018-12-06T14:54:22.386Z,0.90
2018-12-06T14:56:51.351Z,0.90
2018-12-06T14:59:20.522Z,0.90
2018-12-06T15:01:49.863Z,0.80
2018-12-06T15:05:48.150Z,0.80
2018-12-06T15:08:18.142Z,0.60
2018-12-06T15:11:03.030Z,0.40
2018-12-06T15:13:31.981Z,0.30
2018-12-06T15:16:00.688Z,0.20
2018-12-06T15:18:30.355Z,0.10
2018-12-06T15:22:28.515Z,0.00
2018-12-06T15:32:30.751Z,-0.10
2018-12-06T15:35:02.972Z,-0.30
2018-12-06T15:37:36.175Z,-0.40
2018-12-06T15:40:11.795Z,-0.50
2018-12-06T15:42:44.707Z,-0.60
2018-12-06T15:45:18.082Z,-0.60
2018-12-06T15:47:50.064Z,-0.70
2018-12-06T15:50:24.886Z,-0.70
2018-12-06T15:52:56.852Z,-0.80
2018-12-06T15:55:28.126Z,-0.90
2018-12-06T15:58:00.609Z,-0.90
2018-12-06T16:00:31.648Z,-1.00
2018-12-06T16:03:03.366Z,-1.00
2018-12-06T16:05:36.226Z,-1.00
2018-12-06T16:08:06.947Z,-1.10
2018-12-06T16:13:30.886Z,-1.10
2018-12-06T16:16:02.122Z,-1.10
2018-12-06T16:18:36.435Z,-1.20
2018-12-06T16:21:08.103Z,-1.20
2018-12-06T16:23:38.504Z,-1.20
2018-12-06T16:26:09.944Z,-1.30
2018-12-06T16:28:42.883Z,-1.30
2018-12-06T16:31:19.813Z,-1.30
2018-12-06T16:33:50.900Z,-1.30
2018-12-06T16:36:22.522Z,-1.30
2018-12-06T16:38:55.334Z,-1.30
2018-12-06T16:41:25.066Z,-1.30
2018-12-06T16:43:56.933Z,-1.40
2018-12-06T16:46:28.468Z,-1.40
2018-12-06T16:48:57.986Z,-1.40
2018-12-06T16:51:29.808Z,-1.50
2018-12-06T16:54:00.935Z,-1.50
2018-12-06T16:56:32.996Z,-1.50
2018-12-06T16:59:03.750Z,-1.50
2018-12-06T17:01:34.431Z,-1.50
2018-12-06T17:04:05.259Z,-1.50
2018-12-06T17:06:36.406Z,-1.40
2018-12-06T17:09:09.958Z,-1.30
2018-12-06T17:20:50.122Z,-0.70
2018-12-06T17:23:21.087Z,-0.60
2018-12-06T17:25:53.185Z,-0.60
2018-12-06T17:28:23.928Z,-0.60
2018-12-06T17:30:54.903Z,-0.60
2018-12-06T17:33:24.200Z,-0.60
2018-12-06T17:35:53.181Z,-0.50
2018-12-06T17:38:41.110Z,-0.50
2018-12-06T17:41:21.899Z,-0.40
2018-12-06T17:43:53.092Z,-0.30
2018-12-06T17:46:25.900Z,-0.20
2018-12-06T17:51:30.821Z,0.00
2018-12-06T17:56:53.924Z,0.10
2018-12-06T17:59:25.616Z,0.20
2018-12-06T18:04:35.935Z,0.40
2018-12-06T18:07:07.936Z,0.40
2018-12-06T18:09:39.519Z,0.40
2018-12-06T18:12:11.046Z,0.40
2018-12-06T18:14:49.126Z,0.50
2018-12-06T18:17:20.520Z,0.50
2018-12-06T18:19:51.856Z,0.60
2018-12-06T18:22:22.571Z,0.70
2018-12-06T18:24:53.336Z,0.70
2018-12-06T18:27:23.588Z,0.70
2018-12-06T18:29:54.085Z,0.80
2018-12-06T18:32:24.980Z,0.80
2018-12-06T18:34:56.063Z,0.80
2018-12-06T18:37:26.816Z,0.90
2018-12-06T18:39:59.463Z,0.90
2018-12-06T18:42:30.941Z,0.90
2018-12-06T18:45:01.960Z,0.80
2018-12-06T18:47:32.164Z,0.80
2018-12-06T18:50:03.826Z,0.80
2018-12-06T18:52:41.458Z,0.80
2018-12-06T18:55:23.759Z,0.80
2018-12-06T18:57:56.160Z,0.80
2018-12-06T19:00:28.000Z,0.90
2018-12-06T19:03:00.100Z,0.90
2018-12-06T19:05:39.427Z,0.90
2018-12-06T19:08:10.719Z,0.90
2018-12-06T19:10:41.963Z,0.90
2018-12-06T19:13:12.868Z,0.90
2018-12-06T19:15:48.275Z,0.90
2018-12-06T19:18:20.063Z,0.90
2018-12-06T19:20:50.063Z,0.90
2018-12-06T19:23:21.106Z,1.00
2018-12-06T19:25:51.423Z,1.00
2018-12-06T19:28:21.567Z,1.00
2018-12-06T19:30:53.644Z,1.00
2018-12-06T19:33:25.634Z,1.00
2018-12-06T19:35:55.206Z,1.00
2018-12-06T19:38:24.718Z,0.90
2018-12-06T19:40:54.839Z,0.90
2018-12-06T19:43:24.676Z,0.90
2018-12-06T19:45:55.679Z,1.00
2018-12-06T19:48:27.400Z,1.00
2018-12-06T19:50:57.976Z,1.00
2018-12-06T19:53:29.856Z,1.00
2018-12-06T19:56:02.868Z,1.00
2018-12-06T19:58:34.692Z,1.00
2018-12-06T20:01:07.678Z,1.00
2018-12-06T20:03:37.944Z,1.00
2018-12-06T20:06:07.080Z,1.00
2018-12-06T20:08:36.922Z,1.00
2018-12-06T20:11:09.166Z,0.90
2018-12-06T20:13:40.479Z,0.90
2018-12-06T20:16:10.914Z,0.90
2018-12-06T20:18:42.574Z,0.90
2018-12-06T20:21:13.612Z,0.80
2018-12-06T20:23:44.098Z,0.80
2018-12-06T20:26:14.260Z,0.80
2018-12-06T20:28:46.604Z,0.80
2018-12-06T20:31:17.435Z,0.80
2018-12-06T20:33:48.959Z,0.80
2018-12-06T20:36:20.362Z,0.80
2018-12-06T20:38:50.563Z,0.80
2018-12-06T20:41:21.663Z,0.90
2018-12-06T20:43:53.743Z,0.90
2018-12-06T20:46:25.126Z,1.00
2018-12-06T20:48:56.870Z,1.10
2018-12-06T20:51:27.792Z,1.20
2018-12-06T20:54:01.535Z,1.20
2018-12-06T20:56:32.195Z,1.30
2018-12-06T20:59:02.467Z,1.40
2018-12-06T21:01:33.055Z,1.40
2018-12-06T21:04:03.730Z,1.50
2018-12-06T21:06:34.722Z,1.50
2018-12-06T21:09:07.416Z,1.60
2018-12-06T21:11:37.407Z,1.60
2018-12-06T21:14:08.876Z,1.70
2018-12-06T21:16:40.245Z,1.70
2018-12-06T21:19:11.808Z,1.70
2018-12-06T21:21:42.340Z,1.80
2018-12-06T21:24:12.773Z,1.80
2018-12-06T21:26:43.793Z,1.90
2018-12-06T21:29:15.582Z,1.90
2018-12-06T21:31:47.652Z,1.90
2018-12-06T21:34:19.839Z,1.90
2018-12-06T21:36:51.747Z,1.90
2018-12-06T21:39:22.846Z,1.90
2018-12-06T21:41:54.109Z,2.00
2018-12-06T21:44:24.766Z,2.00
2018-12-06T21:46:54.914Z,2.00
2018-12-06T21:49:25.565Z,2.00
2018-12-06T21:51:56.798Z,2.00
2018-12-06T21:54:28.628Z,2.00
2018-12-06T21:57:03.729Z,2.10
2018-12-06T21:59:35.396Z,2.10
2018-12-06T22:02:16.223Z,2.10
2018-12-06T22:04:47.587Z,2.00
2018-12-06T22:07:17.686Z,2.10
2018-12-06T22:09:46.996Z,2.00
2018-12-06T22:12:28.507Z,2.10
2018-12-06T22:14:58.406Z,2.00
2018-12-06T22:17:27.754Z,2.00
2018-12-06T22:19:58.845Z,2.00
2018-12-06T22:22:31.412Z,2.10
2018-12-06T22:25:03.466Z,2.10
2018-12-06T22:27:34.679Z,2.10
2018-12-06T22:30:04.767Z,2.10
2018-12-06T22:32:41.995Z,2.10
2018-12-06T22:35:12.661Z,2.10
2018-12-06T22:37:44.297Z,2.10
2018-12-06T22:40:14.438Z,2.20
2018-12-06T22:42:44.170Z,2.30
2018-12-06T22:45:54.078Z,2.30
2018-12-06T22:48:25.478Z,2.30
2018-12-06T22:50:57.238Z,2.40
2018-12-06T22:53:37.454Z,2.40
2018-12-06T22:56:08.940Z,2.40
2018-12-06T22:58:39.789Z,2.50
2018-12-06T23:01:12.160Z,2.50
2018-12-06T23:03:44.558Z,2.50
2018-12-06T23:06:16.418Z,2.60
2018-12-06T23:08:47.468Z,2.60
2018-12-06T23:11:16.970Z,2.60
2018-12-06T23:13:52.594Z,2.70
2018-12-06T23:16:24.225Z,2.70
2018-12-06T23:18:54.515Z,2.70
2018-12-06T23:21:26.398Z,2.80
2018-12-06T23:23:57.419Z,2.80
2018-12-06T23:26:28.504Z,2.80
2018-12-06T23:29:00.640Z,2.90
2018-12-06T23:31:30.979Z,2.90
2018-12-06T23:34:05.250Z,2.90
2018-12-06T23:36:35.123Z,2.90
2018-12-06T23:39:07.450Z,2.90
2018-12-06T23:41:39.013Z,3.00
2018-12-06T23:44:10.601Z,3.00
2018-12-06T23:46:42.491Z,3.10
2018-12-06T23:49:13.631Z,3.10
2018-12-06T23:51:43.638Z,3.10
2018-12-06T23:54:19.234Z,3.10
2018-12-06T23:56:50.343Z,3.10
2018-12-06T23:59:21.247Z,3.10
